KWI weather

Kuwait International Airport
Kuwait City, Al Farwaniyah Governorate, Kuwait

Public forecast

Using degrees Celsius for public forecast. Weather courtesy of forecast.io.

Current aviation weather report (METAR) for Kuwait International Airport

Retrieved 2019/10/19 03:00 UTC (4 minutes ago):

OKBK 190300Z 21004KT 4500 -DU SKC 21/08 Q1013 NOSIG

Aviation forecast (TAF) for Kuwait International Airport

Retrieved 2019-10-19 00:00 UTC (3 hours ago):

TAF OBBI 182300Z 1900/2006 VRB05KT CAVOK TAF OKBK 182245Z 1900/2006 34012KT 7000 NSC TEMPO 1900/1906 VRB03KT 4000 HZ